aviador You're here:

KLBX Decoded Metar

ANGLETON in TX, USA
Report Time2017-11-25 06:53:00
UTC Time2017-11-25 07:39:50
Flight Rules vfr VFR
WindCalm
Visibility9999 m
Phenomena:N/A
Clouds:N/A
Expected CloudBase > 800 ft AGL from Temp-Dew spread
CeilingNone
Temp10°C (ISA -5)
Dew Point08°C (88% RH)
AAT9.6°C
QNH1013 hPa
Density Alt-430 ft
Elevation20 ft
Report Wrong Elevation
Raw Report
METAR KLBX 250653Z AUTO 00000KT 10SM CLR 10/08 A2991 RMK AO2 SLP129
T01000078=

Extra information for KLBX:More info

Metar Taf Metar & Taf Last 4 Metars F.Rules Stats Wind Profile Meteogram Temp Stats Airport Information Weather charts Add Link Nearby VenuesMetar ALERT Operation Metar Decoded Social comments

AIRNAV info for KLBX